sensor_id;sensor_type;location;lat;lon;timestamp;temperature;humidity
21493;DHT22;10908;50.690;4.400;2023-09-07T15:54:25;28.40;48.80
21493;DHT22;10908;50.690;4.400;2023-09-07T15:56:51;28.70;48.20
21493;DHT22;10908;50.690;4.400;2023-09-07T15:59:16;28.60;48.90
21493;DHT22;10908;50.690;4.400;2023-09-07T16:01:42;28.60;47.70
21493;DHT22;10908;50.690;4.400;2023-09-07T16:04:08;28.50;48.70
21493;DHT22;10908;50.690;4.400;2023-09-07T16:06:33;28.50;49.40
21493;DHT22;10908;50.690;4.400;2023-09-07T16:08:59;28.40;50.70
21493;DHT22;10908;50.690;4.400;2023-09-07T16:11:25;28.30;50.80
21493;DHT22;10908;50.690;4.400;2023-09-07T16:13:51;28.40;50.00
21493;DHT22;10908;50.690;4.400;2023-09-07T16:16:17;28.30;50.10
21493;DHT22;10908;50.690;4.400;2023-09-07T16:18:43;28.30;49.90
21493;DHT22;10908;50.690;4.400;2023-09-07T16:21:08;28.20;50.10
21493;DHT22;10908;50.690;4.400;2023-09-07T16:23:41;28.30;50.20
21493;DHT22;10908;50.690;4.400;2023-09-07T16:26:07;28.20;51.10
21493;DHT22;10908;50.690;4.400;2023-09-07T16:28:33;28.20;51.00
21493;DHT22;10908;50.690;4.400;2023-09-07T16:30:58;28.20;50.80
21493;DHT22;10908;50.690;4.400;2023-09-07T16:33:24;28.20;50.40
21493;DHT22;10908;50.690;4.400;2023-09-07T16:35:50;28.20;50.90
21493;DHT22;10908;50.690;4.400;2023-09-07T16:38:15;28.30;51.50
21493;DHT22;10908;50.690;4.400;2023-09-07T16:40:41;28.20;50.80
21493;DHT22;10908;50.690;4.400;2023-09-07T16:43:07;28.10;50.90
21493;DHT22;10908;50.690;4.400;2023-09-07T16:45:32;28.20;50.90
21493;DHT22;10908;50.690;4.400;2023-09-07T16:47:58;28.20;50.70
21493;DHT22;10908;50.690;4.400;2023-09-07T16:50:24;28.20;50.60
21493;DHT22;10908;50.690;4.400;2023-09-07T16:52:50;28.10;50.90
21493;DHT22;10908;50.690;4.400;2023-09-07T16:55:15;28.10;50.90
21493;DHT22;10908;50.690;4.400;2023-09-07T16:57:41;28.10;51.50
21493;DHT22;10908;50.690;4.400;2023-09-07T17:00:07;28.10;51.40
21493;DHT22;10908;50.690;4.400;2023-09-07T17:02:33;28.00;52.30
21493;DHT22;10908;50.690;4.400;2023-09-07T17:04:59;28.00;52.90
21493;DHT22;10908;50.690;4.400;2023-09-07T17:07:25;27.90;53.40
21493;DHT22;10908;50.690;4.400;2023-09-07T17:09:51;27.90;53.50
21493;DHT22;10908;50.690;4.400;2023-09-07T17:12:17;27.90;53.50
21493;DHT22;10908;50.690;4.400;2023-09-07T17:14:43;27.80;54.70
21493;DHT22;10908;50.690;4.400;2023-09-07T17:17:08;27.80;54.50
21493;DHT22;10908;50.690;4.400;2023-09-07T17:19:36;27.80;54.50
21493;DHT22;10908;50.690;4.400;2023-09-07T17:22:01;27.70;55.50
21493;DHT22;10908;50.690;4.400;2023-09-07T17:24:27;27.60;54.80
21493;DHT22;10908;50.690;4.400;2023-09-07T17:26:54;27.50;55.10
21493;DHT22;10908;50.690;4.400;2023-09-07T17:29:20;27.50;55.80
21493;DHT22;10908;50.690;4.400;2023-09-07T17:31:46;27.40;55.90
21493;DHT22;10908;50.690;4.400;2023-09-07T17:34:12;27.40;56.20
21493;DHT22;10908;50.690;4.400;2023-09-07T17:36:38;27.30;57.10
21493;DHT22;10908;50.690;4.400;2023-09-07T17:39:05;27.30;58.10
21493;DHT22;10908;50.690;4.400;2023-09-07T17:41:33;27.10;59.60
21493;DHT22;10908;50.690;4.400;2023-09-07T17:44:00;27.10;59.90
21493;DHT22;10908;50.690;4.400;2023-09-07T17:46:26;26.90;60.10
21493;DHT22;10908;50.690;4.400;2023-09-07T17:48:52;26.80;61.70
21493;DHT22;10908;50.690;4.400;2023-09-07T17:51:18;26.60;61.90
21493;DHT22;10908;50.690;4.400;2023-09-07T17:53:45;26.40;61.70
21493;DHT22;10908;50.690;4.400;2023-09-07T17:56:12;26.30;62.30
21493;DHT22;10908;50.690;4.400;2023-09-07T17:58:42;26.10;62.50
21493;DHT22;10908;50.690;4.400;2023-09-07T18:01:13;26.10;62.30
21493;DHT22;10908;50.690;4.400;2023-09-07T18:03:39;26.10;62.40
21493;DHT22;10908;50.690;4.400;2023-09-07T18:06:05;25.90;62.70
21493;DHT22;10908;50.690;4.400;2023-09-07T18:08:35;25.90;62.90
21493;DHT22;10908;50.690;4.400;2023-09-07T18:11:01;25.80;63.40
21493;DHT22;10908;50.690;4.400;2023-09-07T18:13:27;25.60;64.20
21493;DHT22;10908;50.690;4.400;2023-09-07T18:15:53;25.40;65.30
21493;DHT22;10908;50.690;4.400;2023-09-07T18:18:19;25.20;66.70
21493;DHT22;10908;50.690;4.400;2023-09-07T18:20:45;25.10;67.10
21493;DHT22;10908;50.690;4.400;2023-09-07T18:23:11;25.00;67.30
21493;DHT22;10908;50.690;4.400;2023-09-07T18:25:37;24.90;67.70
21493;DHT22;10908;50.690;4.400;2023-09-07T18:28:04;25.00;67.80
21493;DHT22;10908;50.690;4.400;2023-09-07T18:30:34;24.90;67.80
21493;DHT22;10908;50.690;4.400;2023-09-07T18:33:02;24.80;68.80
21493;DHT22;10908;50.690;4.400;2023-09-07T18:35:29;24.80;69.10
21493;DHT22;10908;50.690;4.400;2023-09-07T18:37:56;24.60;69.90
21493;DHT22;10908;50.690;4.400;2023-09-07T18:40:22;24.50;70.20
21493;DHT22;10908;50.690;4.400;2023-09-07T18:42:47;24.50;70.90
21493;DHT22;10908;50.690;4.400;2023-09-07T18:45:13;24.30;71.60
21493;DHT22;10908;50.690;4.400;2023-09-07T18:47:39;24.10;72.20
21493;DHT22;10908;50.690;4.400;2023-09-07T18:50:05;24.10;72.10
21493;DHT22;10908;50.690;4.400;2023-09-07T18:52:33;23.90;72.50
21493;DHT22;10908;50.690;4.400;2023-09-07T18:54:58;23.80;73.10
21493;DHT22;10908;50.690;4.400;2023-09-07T18:57:24;23.80;73.00
21493;DHT22;10908;50.690;4.400;2023-09-07T18:59:50;23.70;73.20
21493;DHT22;10908;50.690;4.400;2023-09-07T19:02:18;23.80;73.40
21493;DHT22;10908;50.690;4.400;2023-09-07T19:04:44;23.60;73.80
21493;DHT22;10908;50.690;4.400;2023-09-07T19:07:10;23.60;74.20
21493;DHT22;10908;50.690;4.400;2023-09-07T19:09:37;23.50;74.30
21493;DHT22;10908;50.690;4.400;2023-09-07T19:12:03;23.50;74.40
21493;DHT22;10908;50.690;4.400;2023-09-07T19:14:29;23.40;74.70
21493;DHT22;10908;50.690;4.400;2023-09-07T19:16:55;23.40;74.80
21493;DHT22;10908;50.690;4.400;2023-09-07T19:19:20;23.40;74.70
21493;DHT22;10908;50.690;4.400;2023-09-07T19:21:46;23.50;74.70
21493;DHT22;10908;50.690;4.400;2023-09-07T19:24:12;23.40;74.50
21493;DHT22;10908;50.690;4.400;2023-09-07T19:26:39;23.30;74.50
21493;DHT22;10908;50.690;4.400;2023-09-07T19:29:09;23.20;75.00
21493;DHT22;10908;50.690;4.400;2023-09-07T19:31:36;23.20;74.70
21493;DHT22;10908;50.690;4.400;2023-09-07T19:34:03;23.20;74.60
21493;DHT22;10908;50.690;4.400;2023-09-07T19:36:30;23.20;74.40
21493;DHT22;10908;50.690;4.400;2023-09-07T19:38:57;23.10;74.60
21493;DHT22;10908;50.690;4.400;2023-09-07T19:41:24;23.10;74.50
21493;DHT22;10908;50.690;4.400;2023-09-07T19:43:52;23.00;74.50
21493;DHT22;10908;50.690;4.400;2023-09-07T19:46:18;22.90;74.10
21493;DHT22;10908;50.690;4.400;2023-09-07T19:48:46;23.00;75.10
21493;DHT22;10908;50.690;4.400;2023-09-07T19:51:16;22.90;75.60
21493;DHT22;10908;50.690;4.400;2023-09-07T19:53:43;22.90;75.30
21493;DHT22;10908;50.690;4.400;2023-09-07T19:56:17;22.90;75.00
21493;DHT22;10908;50.690;4.400;2023-09-07T19:58:43;22.80;75.40
21493;DHT22;10908;50.690;4.400;2023-09-07T20:01:13;22.60;74.90
21493;DHT22;10908;50.690;4.400;2023-09-07T20:03:42;22.60;74.50
21493;DHT22;10908;50.690;4.400;2023-09-07T20:06:10;22.50;74.50
21493;DHT22;10908;50.690;4.400;2023-09-07T20:08:36;22.50;74.80
21493;DHT22;10908;50.690;4.400;2023-09-07T20:11:09;22.60;75.30
21493;DHT22;10908;50.690;4.400;2023-09-07T20:13:35;22.70;75.60
21493;DHT22;10908;50.690;4.400;2023-09-07T20:16:01;22.70;75.70
21493;DHT22;10908;50.690;4.400;2023-09-07T20:18:27;22.60;75.80
21493;DHT22;10908;50.690;4.400;2023-09-07T20:20:53;22.70;74.70
21493;DHT22;10908;50.690;4.400;2023-09-07T20:23:19;22.60;74.20
21493;DHT22;10908;50.690;4.400;2023-09-07T20:25:44;22.30;74.40
21493;DHT22;10908;50.690;4.400;2023-09-07T20:28:10;22.30;75.30
21493;DHT22;10908;50.690;4.400;2023-09-07T20:30:36;22.20;75.30
21493;DHT22;10908;50.690;4.400;2023-09-07T20:33:01;22.20;75.50
21493;DHT22;10908;50.690;4.400;2023-09-07T20:35:28;22.10;76.00
21493;DHT22;10908;50.690;4.400;2023-09-07T20:38:02;22.00;76.30
21493;DHT22;10908;50.690;4.400;2023-09-07T20:40:31;22.00;76.90
21493;DHT22;10908;50.690;4.400;2023-09-07T20:42:57;21.90;77.10
21493;DHT22;10908;50.690;4.400;2023-09-07T20:45:23;21.90;76.50
21493;DHT22;10908;50.690;4.400;2023-09-07T20:47:52;21.80;76.80
21493;DHT22;10908;50.690;4.400;2023-09-07T20:50:18;21.80;76.90
21493;DHT22;10908;50.690;4.400;2023-09-07T20:52:44;21.70;76.60
21493;DHT22;10908;50.690;4.400;2023-09-07T20:55:10;21.70;77.00
21493;DHT22;10908;50.690;4.400;2023-09-07T20:57:36;21.70;77.20
21493;DHT22;10908;50.690;4.400;2023-09-07T21:00:07;21.60;77.70
21493;DHT22;10908;50.690;4.400;2023-09-07T21:02:38;21.60;78.20
21493;DHT22;10908;50.690;4.400;2023-09-07T21:05:05;21.60;78.00
21493;DHT22;10908;50.690;4.400;2023-09-07T21:07:31;21.80;76.70
21493;DHT22;10908;50.690;4.400;2023-09-07T21:09:56;21.70;76.90
21493;DHT22;10908;50.690;4.400;2023-09-07T21:12:22;21.60;77.50
21493;DHT22;10908;50.690;4.400;2023-09-07T21:14:48;21.50;78.00
21493;DHT22;10908;50.690;4.400;2023-09-07T21:17:13;21.40;78.40
21493;DHT22;10908;50.690;4.400;2023-09-07T21:19:39;21.40;78.70
21493;DHT22;10908;50.690;4.400;2023-09-07T21:22:05;21.40;78.30
21493;DHT22;10908;50.690;4.400;2023-09-07T21:24:30;21.40;78.20
21493;DHT22;10908;50.690;4.400;2023-09-07T21:26:56;21.50;78.00
21493;DHT22;10908;50.690;4.400;2023-09-07T21:29:22;21.50;77.90
21493;DHT22;10908;50.690;4.400;2023-09-07T21:31:48;21.40;78.20
21493;DHT22;10908;50.690;4.400;2023-09-07T21:34:13;21.30;78.70
21493;DHT22;10908;50.690;4.400;2023-09-07T21:36:39;21.30;78.90
21493;DHT22;10908;50.690;4.400;2023-09-07T21:39:06;21.30;78.70
21493;DHT22;10908;50.690;4.400;2023-09-07T21:41:50;21.30;78.80
21493;DHT22;10908;50.690;4.400;2023-09-07T21:44:17;21.10;79.30
21493;DHT22;10908;50.690;4.400;2023-09-07T21:46:43;20.90;80.00
21493;DHT22;10908;50.690;4.400;2023-09-07T21:49:10;20.80;80.30
21493;DHT22;10908;50.690;4.400;2023-09-07T21:51:37;20.80;80.30
21493;DHT22;10908;50.690;4.400;2023-09-07T21:54:03;21.00;79.90
21493;DHT22;10908;50.690;4.400;2023-09-07T21:56:29;21.20;79.40
21493;DHT22;10908;50.690;4.400;2023-09-07T21:58:55;21.20;79.30
21493;DHT22;10908;50.690;4.400;2023-09-07T22:01:20;21.00;79.50
21493;DHT22;10908;50.690;4.400;2023-09-07T22:03:46;20.90;79.70
21493;DHT22;10908;50.690;4.400;2023-09-07T22:06:12;20.80;80.00
21493;DHT22;10908;50.690;4.400;2023-09-07T22:08:38;20.90;80.00
21493;DHT22;10908;50.690;4.400;2023-09-07T22:11:04;20.90;80.00
21493;DHT22;10908;50.690;4.400;2023-09-07T22:13:30;20.90;80.00
21493;DHT22;10908;50.690;4.400;2023-09-07T22:15:55;20.90;79.80
21493;DHT22;10908;50.690;4.400;2023-09-07T22:18:21;20.80;80.50
21493;DHT22;10908;50.690;4.400;2023-09-07T22:20:47;20.60;81.10
21493;DHT22;10908;50.690;4.400;2023-09-07T22:23:15;20.70;80.80
21493;DHT22;10908;50.690;4.400;2023-09-07T22:25:41;20.70;81.00
21493;DHT22;10908;50.690;4.400;2023-09-07T22:28:08;20.70;80.90
21493;DHT22;10908;50.690;4.400;2023-09-07T22:30:35;20.60;81.30
21493;DHT22;10908;50.690;4.400;2023-09-07T22:33:01;20.40;81.60
21493;DHT22;10908;50.690;4.400;2023-09-07T22:35:27;20.50;82.00
21493;DHT22;10908;50.690;4.400;2023-09-07T22:37:53;20.50;81.90
21493;DHT22;10908;50.690;4.400;2023-09-07T22:40:19;20.50;81.70
21493;DHT22;10908;50.690;4.400;2023-09-07T22:42:45;20.50;81.50
21493;DHT22;10908;50.690;4.400;2023-09-07T22:45:12;20.40;81.50
21493;DHT22;10908;50.690;4.400;2023-09-07T22:47:38;20.30;81.70
21493;DHT22;10908;50.690;4.400;2023-09-07T22:50:08;20.40;81.90
21493;DHT22;10908;50.690;4.400;2023-09-07T22:52:34;20.30;82.10
21493;DHT22;10908;50.690;4.400;2023-09-07T22:55:05;20.30;82.30
21493;DHT22;10908;50.690;4.400;2023-09-07T22:57:33;20.30;82.40
21493;DHT22;10908;50.690;4.400;2023-09-07T22:59:59;20.30;82.70
21493;DHT22;10908;50.690;4.400;2023-09-07T23:02:26;20.30;82.70
21493;DHT22;10908;50.690;4.400;2023-09-07T23:04:54;20.30;82.70
21493;DHT22;10908;50.690;4.400;2023-09-07T23:07:21;20.30;82.60
21493;DHT22;10908;50.690;4.400;2023-09-07T23:09:47;20.30;82.40
21493;DHT22;10908;50.690;4.400;2023-09-07T23:12:13;20.40;82.20
21493;DHT22;10908;50.690;4.400;2023-09-07T23:14:39;20.40;81.90
21493;DHT22;10908;50.690;4.400;2023-09-07T23:17:05;20.40;82.30
21493;DHT22;10908;50.690;4.400;2023-09-07T23:19:31;20.40;82.20
21493;DHT22;10908;50.690;4.400;2023-09-07T23:21:57;20.50;82.10
21493;DHT22;10908;50.690;4.400;2023-09-07T23:24:25;20.50;81.90
21493;DHT22;10908;50.690;4.400;2023-09-07T23:26:51;20.40;82.20
21493;DHT22;10908;50.690;4.400;2023-09-07T23:29:17;20.30;82.50
21493;DHT22;10908;50.690;4.400;2023-09-07T23:31:43;20.20;82.60
21493;DHT22;10908;50.690;4.400;2023-09-07T23:34:12;20.10;82.80
21493;DHT22;10908;50.690;4.400;2023-09-07T23:36:37;20.10;82.90
21493;DHT22;10908;50.690;4.400;2023-09-07T23:39:03;19.90;83.20
21493;DHT22;10908;50.690;4.400;2023-09-07T23:41:29;20.10;83.00
21493;DHT22;10908;50.690;4.400;2023-09-07T23:43:55;19.70;84.20
21493;DHT22;10908;50.690;4.400;2023-09-07T23:46:21;19.50;84.70
21493;DHT22;10908;50.690;4.400;2023-09-07T23:48:47;19.50;85.50
21493;DHT22;10908;50.690;4.400;2023-09-07T23:51:12;19.60;85.50
21493;DHT22;10908;50.690;4.400;2023-09-07T23:53:38;19.50;85.50
21493;DHT22;10908;50.690;4.400;2023-09-07T23:56:04;19.50;85.40
21493;DHT22;10908;50.690;4.400;2023-09-07T23:58:30;19.60;85.10
